Time;durP1;ratioP1;P1;durP2;ratioP2;P2;SDS_P1;SDS_P2;PMS_P1;PMS_P2;Temp;Humidity;BMP_temperature;BMP_pressure;BME280_temperature;BME280_humidity;BME280_pressure;Samples;Min_cycle;Max_cycle;Signal;HPM_P1;HPM_P2
2023/09/09 00:01:06;;;;;;;21.52;18.13;;;;;;;;;;6215153;23;20399;-84
2023/09/09 00:03:32;;;;;;;20.80;18.60;;;;;;;;;;6215387;23;20340;-83
2023/09/09 00:05:59;;;;;;;21.30;19.02;;;;;;;;;;6217192;23;20013;-83
2023/09/09 00:08:25;;;;;;;21.10;19.00;;;;;;;;;;6215539;23;20091;-83
2023/09/09 00:10:51;;;;;;;21.90;19.60;;;;;;;;;;6215372;23;20024;-83
2023/09/09 00:13:17;;;;;;;22.38;20.08;;;;;;;;;;6215815;23;20016;-83
2023/09/09 00:15:45;;;;;;;18.40;16.50;;;;;;;;;;6215683;23;20021;-84
2023/09/09 00:18:11;;;;;;;20.20;18.10;;;;;;;;;;6214789;23;20031;-84
2023/09/09 00:20:40;;;;;;;19.23;17.27;;;;;;;;;;6216070;23;20067;-84
2023/09/09 00:23:10;;;;;;;19.35;17.45;;;;;;;;;;6216019;23;20024;-83
2023/09/09 00:25:39;;;;;;;20.65;18.52;;;;;;;;;;6216710;23;20096;-83
2023/09/09 00:28:10;;;;;;;19.98;17.92;;;;;;;;;;6214945;23;20024;-83
2023/09/09 00:30:36;;;;;;;20.00;17.98;;;;;;;;;;6215191;23;20106;-83
2023/09/09 00:33:02;;;;;;;20.63;18.50;;;;;;;;;;6215592;23;20020;-83
2023/09/09 00:35:28;;;;;;;21.15;18.95;;;;;;;;;;6215127;23;20352;-83
2023/09/09 00:37:55;;;;;;;19.92;17.92;;;;;;;;;;6214897;23;20028;-83
2023/09/09 00:40:21;;;;;;;19.92;17.92;;;;;;;;;;6215357;23;20035;-83
2023/09/09 00:42:48;;;;;;;20.73;18.65;;;;;;;;;;6215503;23;20020;-83
2023/09/09 00:45:14;;;;;;;21.27;19.08;;;;;;;;;;6216729;23;20075;-83
2023/09/09 00:47:40;;;;;;;21.30;19.17;;;;;;;;;;6214599;23;20044;-83
2023/09/09 00:50:10;;;;;;;23.50;21.10;;;;;;;;;;6215154;23;20016;-83
2023/09/09 00:52:39;;;;;;;22.77;20.40;;;;;;;;;;6216922;23;20528;-83
2023/09/09 00:55:06;;;;;;;21.83;19.60;;;;;;;;;;6214723;23;20017;-83
2023/09/09 00:57:32;;;;;;;23.67;21.27;;;;;;;;;;6215108;23;20036;-84
2023/09/09 01:00:01;;;;;;;23.85;21.45;;;;;;;;;;6216247;23;20028;-83
2023/09/09 01:02:27;;;;;;;23.17;20.80;;;;;;;;;;6214771;23;20271;-83
2023/09/09 01:04:53;;;;;;;24.92;22.33;;;;;;;;;;6214834;23;20028;-83
2023/09/09 01:07:19;;;;;;;23.70;20.92;;;;;;;;;;6214489;23;20070;-83
2023/09/09 01:09:45;;;;;;;23.80;21.40;;;;;;;;;;6214688;23;20023;-83
2023/09/09 01:12:11;;;;;;;23.00;20.50;;;;;;;;;;6214855;23;20012;-83
2023/09/09 01:14:40;;;;;;;17.65;15.85;;;;;;;;;;6214642;23;20016;-83
2023/09/09 01:17:07;;;;;;;11.30;10.27;;;;;;;;;;6214163;23;20441;-83
2023/09/09 01:19:33;;;;;;;11.52;10.45;;;;;;;;;;6214177;23;20017;-84
2023/09/09 01:22:03;;;;;;;11.95;10.82;;;;;;;;;;6214929;23;20433;-84
2023/09/09 01:24:29;;;;;;;11.75;10.65;;;;;;;;;;6215015;23;20021;-83
2023/09/09 01:26:56;;;;;;;12.50;11.40;;;;;;;;;;6216354;23;20515;-83
2023/09/09 01:29:22;;;;;;;13.02;11.82;;;;;;;;;;6216381;23;20024;-84
2023/09/09 01:31:48;;;;;;;13.25;10.90;;;;;;;;;;6215325;23;20016;-83
2023/09/09 01:34:15;;;;;;;14.40;12.98;;;;;;;;;;6214858;23;20012;-83
2023/09/09 01:36:41;;;;;;;15.25;13.45;;;;;;;;;;6214652;23;20039;-84
2023/09/09 01:39:07;;;;;;;12.13;10.95;;;;;;;;;;6213783;23;20017;-84
2023/09/09 01:41:33;;;;;;;10.73;9.63;;;;;;;;;;6216527;23;20017;-84
2023/09/09 01:43:59;;;;;;;10.43;9.45;;;;;;;;;;6215585;23;20395;-83
2023/09/09 01:46:25;;;;;;;12.38;11.18;;;;;;;;;;6190001;23;20016;-83
2023/09/09 01:48:51;;;;;;;11.48;10.38;;;;;;;;;;6214755;23;20143;-83
2023/09/09 01:51:17;;;;;;;11.00;9.90;;;;;;;;;;6216070;23;20492;-83
2023/09/09 01:53:43;;;;;;;12.32;11.23;;;;;;;;;;6216951;23;20035;-83
2023/09/09 01:56:09;;;;;;;12.45;11.25;;;;;;;;;;6214168;23;20021;-83
2023/09/09 01:58:36;;;;;;;13.05;11.75;;;;;;;;;;6214238;23;20448;-83
2023/09/09 02:01:02;;;;;;;13.35;12.15;;;;;;;;;;6214303;23;20028;-83
2023/09/09 02:03:28;;;;;;;11.30;10.40;;;;;;;;;;6215170;23;20063;-83
2023/09/09 02:05:54;;;;;;;10.50;9.70;;;;;;;;;;6214963;23;20024;-83
2023/09/09 02:08:20;;;;;;;10.90;10.00;;;;;;;;;;6189621;23;20013;-83
2023/09/09 02:10:48;;;;;;;10.40;9.60;;;;;;;;;;6215293;23;20036;-83
2023/09/09 02:13:17;;;;;;;9.75;9.05;;;;;;;;;;6189690;23;20019;-83
2023/09/09 02:15:44;;;;;;;10.32;9.48;;;;;;;;;;6189510;23;20019;-83
2023/09/09 02:18:10;;;;;;;11.07;10.00;;;;;;;;;;6189782;23;20429;-83
2023/09/09 02:20:36;;;;;;;11.75;10.75;;;;;;;;;;6214772;23;20479;-83
2023/09/09 02:23:03;;;;;;;11.57;10.63;;;;;;;;;;6214973;23;20024;-83
2023/09/09 02:25:32;;;;;;;13.13;11.68;;;;;;;;;;6215304;23;20035;-83
2023/09/09 02:27:58;;;;;;;11.85;10.88;;;;;;;;;;6215120;23;20016;-83
2023/09/09 02:30:24;;;;;;;11.60;10.68;;;;;;;;;;6216478;23;20463;-83
2023/09/09 02:32:50;;;;;;;10.38;9.60;;;;;;;;;;6215052;23;20021;-83
2023/09/09 02:35:16;;;;;;;9.73;9.02;;;;;;;;;;6214236;23;20048;-83
2023/09/09 02:37:42;;;;;;;10.63;9.73;;;;;;;;;;6226237;23;20104;-84
2023/09/09 02:40:09;;;;;;;10.63;9.73;;;;;;;;;;6246603;23;20024;-83
2023/09/09 02:42:35;;;;;;;9.20;8.40;;;;;;;;;;6194223;23;20062;-83
2023/09/09 02:45:02;;;;;;;8.98;8.27;;;;;;;;;;6194618;23;20017;-83
2023/09/09 02:47:28;;;;;;;9.27;8.57;;;;;;;;;;6194266;23;20478;-83
2023/09/09 02:49:55;;;;;;;9.02;8.32;;;;;;;;;;6218985;23;20293;-84
2023/09/09 02:52:21;;;;;;;10.05;9.35;;;;;;;;;;6193979;23;20032;-83
2023/09/09 02:54:48;;;;;;;9.60;8.90;;;;;;;;;;6219603;23;20470;-83
2023/09/09 02:57:14;;;;;;;11.55;10.55;;;;;;;;;;6194305;23;20111;-83
2023/09/09 02:59:40;;;;;;;13.00;11.75;;;;;;;;;;6218561;23;20244;-83
2023/09/09 03:02:06;;;;;;;14.82;13.43;;;;;;;;;;6246747;23;20020;-83
2023/09/09 03:04:32;;;;;;;15.27;13.98;;;;;;;;;;6220525;23;20031;-83
2023/09/09 03:06:58;;;;;;;14.55;13.25;;;;;;;;;;6247340;23;20012;-84
2023/09/09 03:09:25;;;;;;;15.32;14.02;;;;;;;;;;6219612;23;20024;-83
2023/09/09 03:11:53;;;;;;;18.85;17.15;;;;;;;;;;6220194;23;20309;-83
2023/09/09 03:14:20;;;;;;;18.45;16.85;;;;;;;;;;6220004;23;20016;-83
2023/09/09 03:16:46;;;;;;;17.27;15.65;;;;;;;;;;6246339;23;20083;-83
2023/09/09 03:19:12;;;;;;;16.98;15.40;;;;;;;;;;6219192;23;20074;-83
2023/09/09 03:21:38;;;;;;;16.27;14.88;;;;;;;;;;6218985;23;20022;-83
2023/09/09 03:24:05;;;;;;;17.50;15.90;;;;;;;;;;6219481;23;20394;-83
2023/09/09 03:26:31;;;;;;;18.40;16.70;;;;;;;;;;6218904;23;20391;-83
2023/09/09 03:28:59;;;;;;;18.30;16.60;;;;;;;;;;6219034;23;20135;-83
2023/09/09 03:31:25;;;;;;;17.90;16.30;;;;;;;;;;6219368;23;20023;-83
2023/09/09 03:33:51;;;;;;;18.55;16.85;;;;;;;;;;6219206;23;20339;-84
2023/09/09 03:36:17;;;;;;;18.58;16.77;;;;;;;;;;6246023;23;20413;-83
2023/09/09 03:38:43;;;;;;;14.25;13.05;;;;;;;;;;6219536;23;20035;-83
2023/09/09 03:41:09;;;;;;;12.60;11.48;;;;;;;;;;6219403;23;20411;-83
2023/09/09 03:43:37;;;;;;;14.18;12.88;;;;;;;;;;6246485;23;20023;-83
2023/09/09 03:46:03;;;;;;;14.70;13.40;;;;;;;;;;6218399;23;20071;-83
2023/09/09 03:48:30;;;;;;;15.90;14.48;;;;;;;;;;6218546;23;20035;-84
2023/09/09 03:51:02;;;;;;;18.35;16.65;;;;;;;;;;6218809;23;20024;-83
2023/09/09 03:53:29;;;;;;;20.33;18.33;;;;;;;;;;6219362;23;20373;-83
2023/09/09 03:55:55;;;;;;;21.17;18.88;;;;;;;;;;6218894;23;20016;-83
2023/09/09 03:58:21;;;;;;;22.05;19.90;;;;;;;;;;6218427;23;20023;-83
2023/09/09 04:00:47;;;;;;;24.13;21.63;;;;;;;;;;6218912;23;20099;-83
2023/09/09 04:03:14;;;;;;;27.42;24.63;;;;;;;;;;6220251;23;20048;-83
2023/09/09 04:05:40;;;;;;;25.52;22.77;;;;;;;;;;6220885;23;20448;-83
2023/09/09 04:08:12;;;;;;;22.33;20.05;;;;;;;;;;6218611;23;20020;-83
2023/09/09 04:10:38;;;;;;;26.58;23.98;;;;;;;;;;6247163;23;20016;-83
2023/09/09 04:13:04;;;;;;;25.67;23.05;;;;;;;;;;6220129;23;20016;-83
2023/09/09 04:15:30;;;;;;;29.23;26.05;;;;;;;;;;6220613;23;20043;-83
2023/09/09 04:17:56;;;;;;;31.70;26.85;;;;;;;;;;6220745;23;20016;-83
2023/09/09 04:20:22;;;;;;;28.65;25.55;;;;;;;;;;6247310;23;20344;-83
2023/09/09 04:22:48;;;;;;;27.83;24.92;;;;;;;;;;6220026;23;20090;-83
2023/09/09 04:25:15;;;;;;;29.58;26.48;;;;;;;;;;6220229;23;20019;-83
2023/09/09 04:27:41;;;;;;;29.00;25.90;;;;;;;;;;6223871;23;20448;-84
2023/09/09 04:30:07;;;;;;;29.70;26.38;;;;;;;;;;6223549;23;20325;-84
2023/09/09 04:32:34;;;;;;;23.05;20.70;;;;;;;;;;6224085;23;20020;-84
2023/09/09 04:35:00;;;;;;;16.88;15.30;;;;;;;;;;6223798;23;20070;-84
2023/09/09 04:37:27;;;;;;;18.23;16.42;;;;;;;;;;6222933;23;20043;-84
2023/09/09 04:39:55;;;;;;;18.25;16.45;;;;;;;;;;6222893;23;20463;-84
2023/09/09 04:42:21;;;;;;;18.45;16.55;;;;;;;;;;6222211;23;20031;-84
2023/09/09 04:44:47;;;;;;;20.05;17.90;;;;;;;;;;6221607;23;20399;-84
2023/09/09 04:47:16;;;;;;;19.63;17.63;;;;;;;;;;6222955;23;20016;-84
2023/09/09 04:49:42;;;;;;;20.90;18.70;;;;;;;;;;6222300;23;20012;-83
2023/09/09 04:52:08;;;;;;;19.23;17.25;;;;;;;;;;6221450;23;20332;-83
2023/09/09 04:54:34;;;;;;;18.83;16.92;;;;;;;;;;6220663;23;20050;-83
2023/09/09 04:57:02;;;;;;;17.40;15.73;;;;;;;;;;6248118;23;20312;-84
2023/09/09 04:59:28;;;;;;;15.55;14.07;;;;;;;;;;6221193;23;20020;-83
2023/09/09 05:01:54;;;;;;;14.70;13.30;;;;;;;;;;6248082;23;20150;-84
2023/09/09 05:04:20;;;;;;;16.75;15.10;;;;;;;;;;6221278;23;20119;-83
2023/09/09 05:06:46;;;;;;;20.80;18.70;;;;;;;;;;6221537;23;20023;-84
2023/09/09 05:09:12;;;;;;;19.73;17.67;;;;;;;;;;6221586;23;20328;-84
2023/09/09 05:11:39;;;;;;;21.10;18.90;;;;;;;;;;6248266;23;20074;-83
2023/09/09 05:14:05;;;;;;;24.58;18.75;;;;;;;;;;6220540;23;20023;-84
2023/09/09 05:16:31;;;;;;;26.42;19.88;;;;;;;;;;6221649;23;20020;-83
2023/09/09 05:18:58;;;;;;;21.92;19.63;;;;;;;;;;6221551;23;20024;-84
2023/09/09 05:21:24;;;;;;;22.95;20.10;;;;;;;;;;6221909;23;20023;-84
2023/09/09 05:23:50;;;;;;;19.85;17.85;;;;;;;;;;6222275;23;20091;-83
2023/09/09 05:26:16;;;;;;;17.02;15.43;;;;;;;;;;6248420;23;20012;-84
2023/09/09 05:28:42;;;;;;;18.25;16.52;;;;;;;;;;6196292;23;20218;-84
2023/09/09 05:31:08;;;;;;;17.52;15.82;;;;;;;;;;6220895;23;20066;-83
2023/09/09 05:33:34;;;;;;;17.38;15.68;;;;;;;;;;6248366;23;20023;-83
2023/09/09 05:36:00;;;;;;;17.27;15.45;;;;;;;;;;6221230;23;20047;-83
2023/09/09 05:38:26;;;;;;;14.68;13.27;;;;;;;;;;6220912;23;20016;-83
2023/09/09 05:40:53;;;;;;;15.18;13.80;;;;;;;;;;6221912;23;20052;-84
2023/09/09 05:43:19;;;;;;;15.52;14.02;;;;;;;;;;6248763;23;20011;-84
2023/09/09 05:45:45;;;;;;;15.23;13.85;;;;;;;;;;6222492;23;20081;-83
2023/09/09 05:48:11;;;;;;;14.75;13.30;;;;;;;;;;6250792;23;20090;-84
2023/09/09 05:50:37;;;;;;;16.30;14.60;;;;;;;;;;6221539;23;20055;-84
2023/09/09 05:53:04;;;;;;;16.85;14.85;;;;;;;;;;6219719;23;20016;-83
2023/09/09 05:55:30;;;;;;;16.80;15.20;;;;;;;;;;6220059;23;20074;-83
2023/09/09 05:57:56;;;;;;;15.63;14.18;;;;;;;;;;6220269;23;20099;-83
2023/09/09 06:00:22;;;;;;;16.17;14.68;;;;;;;;;;6244608;23;20008;-83
2023/09/09 06:02:48;;;;;;;16.65;14.95;;;;;;;;;;6246077;23;20392;-84
2023/09/09 06:05:15;;;;;;;18.25;16.33;;;;;;;;;;6246711;23;20113;-84
2023/09/09 06:07:41;;;;;;;17.60;15.80;;;;;;;;;;6246313;23;20479;-84
2023/09/09 06:10:08;;;;;;;18.65;16.90;;;;;;;;;;6246684;23;20448;-84
2023/09/09 06:12:34;;;;;;;19.00;17.00;;;;;;;;;;6246472;23;20016;-84
2023/09/09 06:15:00;;;;;;;19.08;17.27;;;;;;;;;;6219835;23;20097;-84
2023/09/09 06:17:26;;;;;;;18.92;17.02;;;;;;;;;;6218815;23;20143;-84
2023/09/09 06:19:52;;;;;;;21.85;19.65;;;;;;;;;;6218976;23;20027;-84
2023/09/09 06:22:18;;;;;;;20.92;18.90;;;;;;;;;;6218664;23;20378;-84
2023/09/09 06:24:44;;;;;;;24.95;22.45;;;;;;;;;;6219383;23;20447;-84
2023/09/09 06:27:10;;;;;;;24.10;21.75;;;;;;;;;;6218876;23;20468;-83
2023/09/09 06:29:37;;;;;;;23.98;21.52;;;;;;;;;;6246026;23;20016;-83
2023/09/09 06:32:06;;;;;;;25.90;23.30;;;;;;;;;;6245871;23;20020;-84
2023/09/09 06:34:32;;;;;;;24.77;22.00;;;;;;;;;;6218916;23;20570;-84
2023/09/09 06:36:58;;;;;;;25.58;22.48;;;;;;;;;;6244900;23;20035;-83
2023/09/09 06:39:24;;;;;;;25.63;22.98;;;;;;;;;;6246543;23;20447;-84
2023/09/09 06:41:50;;;;;;;30.95;27.65;;;;;;;;;;6246001;23;20062;-83
2023/09/09 06:44:16;;;;;;;41.22;35.28;;;;;;;;;;6218787;23;20091;-84
2023/09/09 06:46:42;;;;;;;54.15;41.70;;;;;;;;;;6245389;23;20023;-84
2023/09/09 06:49:08;;;;;;;53.63;44.40;;;;;;;;;;6218687;23;20028;-84
2023/09/09 06:51:34;;;;;;;59.10;48.60;;;;;;;;;;6245987;23;20023;-84
2023/09/09 06:54:00;;;;;;;79.97;59.35;;;;;;;;;;6219153;23;20135;-84
2023/09/09 06:56:27;;;;;;;92.00;68.15;;;;;;;;;;6245600;23;20059;-84
2023/09/09 06:58:53;;;;;;;104.15;76.85;;;;;;;;;;6244908;23;20028;-84
2023/09/09 07:01:19;;;;;;;134.48;93.60;;;;;;;;;;6219179;23;20074;-84
2023/09/09 07:03:45;;;;;;;132.23;91.72;;;;;;;;;;6218623;23;20016;-84
2023/09/09 07:06:11;;;;;;;135.98;96.07;;;;;;;;;;6218172;23;20017;-85
2023/09/09 07:08:40;;;;;;;117.35;84.15;;;;;;;;;;6218188;23;20047;-84
2023/09/09 07:11:06;;;;;;;135.48;94.05;;;;;;;;;;6245631;23;20016;-85
2023/09/09 07:13:32;;;;;;;134.75;96.28;;;;;;;;;;6220546;23;20142;-84
2023/09/09 07:15:58;;;;;;;129.27;93.38;;;;;;;;;;6219536;23;20370;-84
2023/09/09 07:18:24;;;;;;;129.18;93.38;;;;;;;;;;6245275;23;20095;-85
2023/09/09 07:20:50;;;;;;;132.57;93.60;;;;;;;;;;6218620;23;20020;-85
2023/09/09 07:23:17;;;;;;;127.35;90.13;;;;;;;;;;6219275;23;20048;-84
2023/09/09 07:25:49;;;;;;;123.47;88.82;;;;;;;;;;6245915;23;20054;-85
2023/09/09 07:28:15;;;;;;;112.47;85.10;;;;;;;;;;6246876;23;20432;-85
2023/09/09 07:30:42;;;;;;;118.18;87.72;;;;;;;;;;6193909;23;20091;-85
2023/09/09 07:33:08;;;;;;;127.93;92.90;;;;;;;;;;6219015;23;20016;-85
2023/09/09 07:35:38;;;;;;;138.45;98.82;;;;;;;;;;6218946;23;20016;-86
2023/09/09 07:38:06;;;;;;;135.30;100.57;;;;;;;;;;6219386;23;20061;-84
2023/09/09 07:40:32;;;;;;;138.02;106.15;;;;;;;;;;6220936;23;20020;-84
2023/09/09 07:42:59;;;;;;;147.20;108.40;;;;;;;;;;6220900;23;20020;-84
2023/09/09 07:45:26;;;;;;;140.55;107.90;;;;;;;;;;6220974;23;20028;-84
2023/09/09 07:47:52;;;;;;;141.20;108.45;;;;;;;;;;6220713;23;20050;-84
2023/09/09 07:50:18;;;;;;;135.63;103.38;;;;;;;;;;6220188;23;20016;-84
2023/09/09 07:52:46;;;;;;;133.77;104.28;;;;;;;;;;6220861;23;20016;-84
2023/09/09 07:55:12;;;;;;;132.98;101.65;;;;;;;;;;6220622;23;20020;-84
2023/09/09 07:57:41;;;;;;;131.07;98.43;;;;;;;;;;6221036;23;20051;-84
2023/09/09 08:00:08;;;;;;;124.82;99.45;;;;;;;;;;6220089;23;20047;-85
2023/09/09 08:02:35;;;;;;;124.78;94.78;;;;;;;;;;6220234;23;20355;-84
2023/09/09 08:05:02;;;;;;;121.05;93.60;;;;;;;;;;6220432;23;20019;-84
2023/09/09 08:07:34;;;;;;;122.72;93.63;;;;;;;;;;6220237;23;20013;-84
2023/09/09 08:10:00;;;;;;;121.13;92.40;;;;;;;;;;6220956;23;20022;-84
2023/09/09 08:12:29;;;;;;;111.85;88.88;;;;;;;;;;6220843;23;20452;-84
2023/09/09 08:15:08;;;;;;;108.68;83.68;;;;;;;;;;6220517;23;20048;-84
2023/09/09 08:17:34;;;;;;;106.07;80.95;;;;;;;;;;6220608;23;20020;-84
2023/09/09 08:20:05;;;;;;;106.97;82.78;;;;;;;;;;6220361;23;20024;-85
2023/09/09 08:22:32;;;;;;;102.53;81.13;;;;;;;;;;6220694;23;20012;-84
2023/09/09 08:24:58;;;;;;;100.50;75.32;;;;;;;;;;6220459;23;20012;-84
2023/09/09 08:27:24;;;;;;;103.60;79.28;;;;;;;;;;6220277;23;20044;-84
2023/09/09 08:29:50;;;;;;;98.93;75.22;;;;;;;;;;6219376;23;20460;-84
2023/09/09 08:32:16;;;;;;;105.15;76.47;;;;;;;;;;6220730;23;20016;-85
2023/09/09 08:34:42;;;;;;;92.63;71.05;;;;;;;;;;6220369;23;20016;-85
2023/09/09 08:37:09;;;;;;;85.45;64.32;;;;;;;;;;6220559;23;20012;-85
2023/09/09 08:39:35;;;;;;;83.90;64.20;;;;;;;;;;6221389;23;20028;-85
2023/09/09 08:42:05;;;;;;;78.97;61.45;;;;;;;;;;6219772;23;20023;-84
2023/09/09 08:44:52;;;;;;;81.75;62.20;;;;;;;;;;6220021;23;20012;-84
2023/09/09 08:47:19;;;;;;;83.85;61.13;;;;;;;;;;6219682;23;20505;-85
2023/09/09 08:49:46;;;;;;;72.60;56.22;;;;;;;;;;6219454;23;20034;-84
2023/09/09 08:52:17;;;;;;;62.33;49.42;;;;;;;;;;6219379;23;20348;-84
2023/09/09 08:54:44;;;;;;;65.32;51.30;;;;;;;;;;6219975;23;20062;-84
2023/09/09 08:57:10;;;;;;;40.58;33.22;;;;;;;;;;6218152;23;20351;-84
2023/09/09 08:59:38;;;;;;;36.75;31.27;;;;;;;;;;6218511;23;20020;-84
2023/09/09 09:02:09;;;;;;;33.58;29.35;;;;;;;;;;6219845;23;20016;-84
2023/09/09 09:04:36;;;;;;;32.67;27.25;;;;;;;;;;6219680;23;20371;-83
2023/09/09 09:07:02;;;;;;;32.20;25.13;;;;;;;;;;6219608;23;20016;-84
2023/09/09 09:09:29;;;;;;;24.70;22.08;;;;;;;;;;6247076;23;20338;-83
2023/09/09 09:12:00;;;;;;;27.88;23.13;;;;;;;;;;6219604;23;20012;-83
2023/09/09 09:14:26;;;;;;;28.58;24.35;;;;;;;;;;6219921;23;20020;-84
2023/09/09 09:16:53;;;;;;;26.45;22.63;;;;;;;;;;6220826;23;20327;-83
2023/09/09 09:19:25;;;;;;;28.38;25.38;;;;;;;;;;6219412;23;20077;-83
2023/09/09 09:21:52;;;;;;;24.65;21.63;;;;;;;;;;6219514;23;20091;-83
2023/09/09 09:24:42;;;;;;;25.25;21.60;;;;;;;;;;6219669;23;20031;-84
2023/09/09 09:27:14;;;;;;;27.00;22.02;;;;;;;;;;6208201;23;20016;-83
2023/09/09 09:29:41;;;;;;;24.63;20.52;;;;;;;;;;6219869;23;20036;-84
2023/09/09 09:32:09;;;;;;;24.83;20.13;;;;;;;;;;6246786;23;20020;-84
2023/09/09 09:34:35;;;;;;;19.10;17.00;;;;;;;;;;6219751;23;20339;-84
2023/09/09 09:37:20;;;;;;;24.10;20.20;;;;;;;;;;6219462;23;20115;-83
2023/09/09 09:39:46;;;;;;;19.65;17.15;;;;;;;;;;6219783;23;20102;-84
2023/09/09 09:42:15;;;;;;;25.00;19.25;;;;;;;;;;6220667;23;20070;-84
2023/09/09 09:44:41;;;;;;;22.23;19.85;;;;;;;;;;6219626;23;20016;-86
2023/09/09 09:47:08;;;;;;;21.73;19.42;;;;;;;;;;6218978;23;20016;-87
2023/09/09 09:49:44;;;;;;;25.27;19.17;;;;;;;;;;6220895;23;20023;-85
2023/09/09 09:52:22;;;;;;;24.05;19.80;;;;;;;;;;6220526;23;20020;-86
2023/09/09 09:54:50;;;;;;;22.17;18.95;;;;;;;;;;6247298;23;20020;-84
2023/09/09 09:57:17;;;;;;;22.45;20.10;;;;;;;;;;6247030;23;20459;-83
2023/09/09 09:59:43;;;;;;;22.08;19.67;;;;;;;;;;6220389;23;20020;-83
2023/09/09 10:02:10;;;;;;;21.40;18.08;;;;;;;;;;6246661;23;20018;-85
2023/09/09 10:04:43;;;;;;;19.17;14.90;;;;;;;;;;6245816;23;20020;-86
2023/09/09 10:07:11;;;;;;;16.38;14.23;;;;;;;;;;6218122;23;20444;-84
2023/09/09 10:09:41;;;;;;;20.13;15.43;;;;;;;;;;6218543;23;20099;-84
2023/09/09 10:12:14;;;;;;;18.38;15.02;;;;;;;;;;6221054;23;20031;-83
2023/09/09 10:14:41;;;;;;;18.60;16.10;;;;;;;;;;6219615;23;20020;-85
2023/09/09 10:17:08;;;;;;;18.83;15.20;;;;;;;;;;6218769;23;20023;-86
2023/09/09 10:19:37;;;;;;;16.73;14.48;;;;;;;;;;6219567;23;20351;-86
2023/09/09 10:22:07;;;;;;;15.27;12.02;;;;;;;;;;6219912;23;20017;-85
2023/09/09 10:24:34;;;;;;;13.77;12.27;;;;;;;;;;6246278;23;20016;-87
2023/09/09 10:27:01;;;;;;;14.15;12.65;;;;;;;;;;6217636;23;20091;-84
2023/09/09 10:29:28;;;;;;;16.67;13.30;;;;;;;;;;6220438;23;20019;-83
2023/09/09 10:31:56;;;;;;;11.82;10.57;;;;;;;;;;6219884;23;20090;-84
2023/09/09 10:34:23;;;;;;;10.80;9.65;;;;;;;;;;6218808;23;20020;-83
2023/09/09 10:36:52;;;;;;;13.57;11.20;;;;;;;;;;6247278;23;20024;-84
2023/09/09 10:39:19;;;;;;;12.95;11.05;;;;;;;;;;6219032;23;20058;-84
2023/09/09 10:41:45;;;;;;;11.05;9.65;;;;;;;;;;6218618;23;20455;-84
2023/09/09 10:44:11;;;;;;;10.82;9.35;;;;;;;;;;6246002;23;20016;-84
2023/09/09 10:46:38;;;;;;;11.85;10.65;;;;;;;;;;6219290;23;20367;-84
2023/09/09 10:49:05;;;;;;;11.50;10.30;;;;;;;;;;6245800;23;20027;-84
2023/09/09 10:51:44;;;;;;;11.52;8.85;;;;;;;;;;6218840;23;20054;-84
2023/09/09 10:54:11;;;;;;;11.02;9.88;;;;;;;;;;6245325;23;20055;-84
2023/09/09 10:56:47;;;;;;;10.45;9.38;;;;;;;;;;6245740;23;20012;-84
2023/09/09 10:59:17;;;;;;;11.50;9.98;;;;;;;;;;6219001;23;20063;-84
2023/09/09 11:01:43;;;;;;;13.90;10.35;;;;;;;;;;6218226;23;20111;-84
2023/09/09 11:04:23;;;;;;;12.68;10.75;;;;;;;;;;6245076;23;20020;-84
2023/09/09 11:06:59;;;;;;;13.30;11.70;;;;;;;;;;6219117;23;20166;-84
2023/09/09 11:09:29;;;;;;;17.52;11.80;;;;;;;;;;6219367;23;20013;-84
2023/09/09 11:11:56;;;;;;;13.18;11.43;;;;;;;;;;6245276;23;20444;-84
2023/09/09 11:14:22;;;;;;;15.90;12.40;;;;;;;;;;6248022;23;20012;-84
2023/09/09 11:16:54;;;;;;;13.45;12.05;;;;;;;;;;6220329;23;20043;-85
2023/09/09 11:19:22;;;;;;;14.30;12.32;;;;;;;;;;6246617;23;20561;-83
2023/09/09 11:21:49;;;;;;;13.13;11.68;;;;;;;;;;6247129;23;20087;-83
2023/09/09 11:24:16;;;;;;;13.60;11.45;;;;;;;;;;6221371;23;20023;-84
2023/09/09 11:26:49;;;;;;;14.68;11.40;;;;;;;;;;6220852;23;20440;-84
2023/09/09 11:29:16;;;;;;;12.02;10.45;;;;;;;;;;6248252;23;20016;-83
2023/09/09 11:31:42;;;;;;;13.55;10.82;;;;;;;;;;6220306;23;20146;-83
2023/09/09 11:34:08;;;;;;;12.15;10.93;;;;;;;;;;6218913;23;20095;-84
2023/09/09 11:36:34;;;;;;;11.05;9.77;;;;;;;;;;6219219;23;20024;-84
2023/09/09 11:39:01;;;;;;;12.65;8.95;;;;;;;;;;6245734;23;20012;-84
2023/09/09 11:41:28;;;;;;;10.95;8.82;;;;;;;;;;6220269;23;20031;-86
2023/09/09 11:43:57;;;;;;;10.75;8.18;;;;;;;;;;6195231;23;20031;-84
2023/09/09 11:46:24;;;;;;;8.90;7.82;;;;;;;;;;6248994;23;20039;-86
2023/09/09 11:48:53;;;;;;;8.88;7.65;;;;;;;;;;6224751;23;20324;-86
2023/09/09 11:51:22;;;;;;;8.70;7.80;;;;;;;;;;6223242;23;20016;-85
2023/09/09 11:53:48;;;;;;;8.18;7.40;;;;;;;;;;6221431;23;20020;-85
2023/09/09 11:56:15;;;;;;;10.18;8.02;;;;;;;;;;6221654;23;20111;-86
2023/09/09 11:58:48;;;;;;;8.50;7.70;;;;;;;;;;6221848;23;20023;-84
2023/09/09 12:01:15;;;;;;;9.98;7.88;;;;;;;;;;6247463;23;20512;-84
2023/09/09 12:03:42;;;;;;;9.57;7.75;;;;;;;;;;6221299;23;20019;-85
2023/09/09 12:06:08;;;;;;;8.80;7.60;;;;;;;;;;6197142;23;20466;-85
2023/09/09 12:08:35;;;;;;;8.23;7.43;;;;;;;;;;6220873;23;20324;-85
2023/09/09 12:11:02;;;;;;;8.27;7.28;;;;;;;;;;6220181;23;20020;-85
2023/09/09 12:13:28;;;;;;;8.82;7.93;;;;;;;;;;6220875;23;20336;-85
2023/09/09 12:15:55;;;;;;;10.00;7.35;;;;;;;;;;6245587;23;20027;-84
2023/09/09 12:18:27;;;;;;;7.78;6.80;;;;;;;;;;6220403;23;20332;-85
2023/09/09 12:21:09;;;;;;;7.97;6.78;;;;;;;;;;6219632;23;20016;-85
2023/09/09 12:23:37;;;;;;;10.68;7.97;;;;;;;;;;6194355;23;20458;-85
2023/09/09 12:26:13;;;;;;;8.40;7.43;;;;;;;;;;6194983;23;20087;-87
2023/09/09 12:28:43;;;;;;;8.15;7.35;;;;;;;;;;6219616;23;20048;-85
2023/09/09 12:31:10;;;;;;;7.95;7.00;;;;;;;;;;6218798;23;20017;-85
2023/09/09 12:33:44;;;;;;;8.27;6.90;;;;;;;;;;6245147;23;20016;-85
2023/09/09 12:36:15;;;;;;;8.88;7.90;;;;;;;;;;6219854;23;20016;-85
2023/09/09 12:38:41;;;;;;;8.63;7.72;;;;;;;;;;6246773;23;20020;-85
2023/09/09 12:41:07;;;;;;;8.90;7.90;;;;;;;;;;6246861;23;20063;-85
2023/09/09 12:43:37;;;;;;;9.85;8.30;;;;;;;;;;6219903;23;20016;-85
2023/09/09 12:46:07;;;;;;;9.40;8.30;;;;;;;;;;6220835;23;20027;-85
2023/09/09 12:48:54;;;;;;;8.75;7.88;;;;;;;;;;6247768;23;20074;-85
2023/09/09 12:51:20;;;;;;;13.05;11.00;;;;;;;;;;6219672;23;20051;-85
2023/09/09 12:53:46;;;;;;;9.65;8.65;;;;;;;;;;6220523;23;20020;-85
2023/09/09 12:56:15;;;;;;;10.48;8.27;;;;;;;;;;6247784;23;20016;-85
2023/09/09 12:58:41;;;;;;;9.90;8.77;;;;;;;;;;6246462;23;20012;-85
2023/09/09 13:01:08;;;;;;;9.98;9.00;;;;;;;;;;6219869;23;20016;-85
2023/09/09 13:03:34;;;;;;;9.90;8.90;;;;;;;;;;6219621;23;20016;-86
2023/09/09 13:06:00;;;;;;;12.90;10.38;;;;;;;;;;6219424;23;20514;-86
2023/09/09 13:08:26;;;;;;;10.18;9.18;;;;;;;;;;6246230;23;20371;-85
2023/09/09 13:10:52;;;;;;;9.77;8.70;;;;;;;;;;6194504;23;20423;-85
2023/09/09 13:13:18;;;;;;;12.75;9.35;;;;;;;;;;6219276;23;20012;-85
2023/09/09 13:15:44;;;;;;;12.77;8.82;;;;;;;;;;6219205;23;20027;-85
2023/09/09 13:18:10;;;;;;;10.07;9.13;;;;;;;;;;6245998;23;20016;-86
2023/09/09 13:20:36;;;;;;;10.15;8.40;;;;;;;;;;6219390;23;20012;-86
2023/09/09 13:23:05;;;;;;;12.65;7.38;;;;;;;;;;6218722;23;20017;-85
2023/09/09 13:25:31;;;;;;;7.80;6.97;;;;;;;;;;6194247;23;20054;-86
2023/09/09 13:27:59;;;;;;;10.00;7.80;;;;;;;;;;6219541;23;20020;-86
2023/09/09 13:30:25;;;;;;;11.32;8.18;;;;;;;;;;6246315;23;20478;-86
2023/09/09 13:32:51;;;;;;;7.40;6.68;;;;;;;;;;6194204;23;20016;-85
2023/09/09 13:35:17;;;;;;;9.68;7.68;;;;;;;;;;6246302;23;20022;-85
2023/09/09 13:37:45;;;;;;;8.55;7.75;;;;;;;;;;6246110;23;20022;-85
2023/09/09 13:40:11;;;;;;;9.77;8.60;;;;;;;;;;6245668;23;20020;-85
2023/09/09 13:42:37;;;;;;;13.77;8.30;;;;;;;;;;6218980;23;20127;-85
2023/09/09 13:45:04;;;;;;;10.18;9.10;;;;;;;;;;6194317;23;20047;-86
2023/09/09 13:47:30;;;;;;;11.35;10.20;;;;;;;;;;6218414;23;20099;-86
2023/09/09 13:50:01;;;;;;;12.43;11.13;;;;;;;;;;6218045;23;20023;-87
2023/09/09 13:52:27;;;;;;;11.63;10.43;;;;;;;;;;6245611;23;20012;-85
2023/09/09 13:54:53;;;;;;;11.43;10.05;;;;;;;;;;6218894;23;20047;-85
2023/09/09 13:57:19;;;;;;;10.60;9.52;;;;;;;;;;6219104;23;20444;-85
2023/09/09 13:59:45;;;;;;;12.10;10.32;;;;;;;;;;6218730;23;20023;-85
2023/09/09 14:02:12;;;;;;;13.80;11.52;;;;;;;;;;6219012;23;20344;-85
2023/09/09 14:04:38;;;;;;;14.60;13.10;;;;;;;;;;6219929;23;20095;-85
2023/09/09 14:07:07;;;;;;;15.82;14.30;;;;;;;;;;6245788;23;20385;-85
2023/09/09 14:09:33;;;;;;;14.93;13.43;;;;;;;;;;6245688;23;20016;-85
2023/09/09 14:11:59;;;;;;;15.93;14.23;;;;;;;;;;6218308;23;20090;-85
2023/09/09 14:14:25;;;;;;;15.32;13.82;;;;;;;;;;6219842;23;20107;-85
2023/09/09 14:16:51;;;;;;;16.35;14.75;;;;;;;;;;6219294;23;20403;-85
2023/09/09 14:19:18;;;;;;;14.82;13.10;;;;;;;;;;6246910;23;20436;-85